Time;durP1;ratioP1;P1;durP2;ratioP2;P2;SDS_P1;SDS_P2;PMS_P1;PMS_P2;Temp;Humidity;BMP_temperature;BMP_pressure;BME280_temperature;BME280_humidity;BME280_pressure;Samples;Min_cycle;Max_cycle;Signal;HPM_P1;HPM_P2
2023/06/23 00:05:25;;;;;;;;;;;17.10;99.90;;;;;;20913643;28;19964;-73
2023/06/23 00:15:26;;;;;;;;;;;17.10;99.90;;;;;;20875670;28;20015;-74
2023/06/23 00:25:27;;;;;;;;;;;17.10;99.90;;;;;;20860754;28;20319;-74
2023/06/23 00:35:28;;;;;;;;;;;17.00;99.90;;;;;;20747294;28;19924;-74
2023/06/23 00:45:28;;;;;;;;;;;17.00;99.90;;;;;;20824364;28;20494;-74
2023/06/23 00:55:29;;;;;;;;;;;16.90;99.90;;;;;;20908767;28;19978;-74
2023/06/23 01:05:35;;;;;;;;;;;16.90;99.90;;;;;;20907900;28;19996;-74
2023/06/23 01:15:36;;;;;;;;;;;16.90;99.90;;;;;;20923951;28;20020;-74
2023/06/23 01:25:46;;;;;;;;;;;16.80;99.90;;;;;;20883557;28;19917;-74
2023/06/23 01:35:52;;;;;;;;;;;16.60;99.90;;;;;;20730925;28;19924;-73
2023/06/23 01:45:55;;;;;;;;;;;16.60;99.90;;;;;;20748677;28;19917;-73
2023/06/23 01:55:56;;;;;;;;;;;16.50;99.90;;;;;;20738024;28;19918;-73
2023/06/23 02:05:58;;;;;;;;;;;16.60;99.90;;;;;;20749150;28;19921;-73
2023/06/23 02:16:00;;;;;;;;;;;16.60;99.90;;;;;;20804633;28;19924;-73
2023/06/23 02:26:01;;;;;;;;;;;16.60;99.90;;;;;;20745910;28;19919;-73
2023/06/23 02:36:03;;;;;;;;;;;16.60;99.90;;;;;;20746115;28;19917;-73
2023/06/23 02:46:05;;;;;;;;;;;16.50;99.90;;;;;;20745607;28;19917;-72
2023/06/23 02:56:07;;;;;;;;;;;16.50;99.90;;;;;;20748849;28;20398;-74
2023/06/23 03:06:18;;;;;;;;;;;16.40;99.90;;;;;;20746735;28;20422;-74
2023/06/23 03:16:22;;;;;;;;;;;16.30;99.90;;;;;;20763251;28;19967;-74
2023/06/23 03:26:23;;;;;;;;;;;16.30;99.90;;;;;;20743940;28;19968;-74
2023/06/23 03:36:24;;;;;;;;;;;16.20;99.90;;;;;;20743152;28;20411;-74
2023/06/23 03:46:32;;;;;;;;;;;16.30;99.90;;;;;;20747121;28;20346;-74
2023/06/23 03:56:34;;;;;;;;;;;16.30;99.90;;;;;;20817970;28;20280;-74
2023/06/23 04:06:35;;;;;;;;;;;16.30;99.90;;;;;;20826585;28;20295;-74
2023/06/23 04:16:37;;;;;;;;;;;16.40;99.90;;;;;;20760290;28;19917;-73
2023/06/23 04:26:39;;;;;;;;;;;16.40;99.90;;;;;;20742336;28;19964;-74
2023/06/23 04:36:50;;;;;;;;;;;16.30;99.90;;;;;;20741463;28;20463;-75
2023/06/23 04:46:52;;;;;;;;;;;16.40;99.90;;;;;;20740248;28;19951;-75
2023/06/23 04:57:00;;;;;;;;;;;16.40;99.90;;;;;;20740122;28;20449;-74
2023/06/23 05:07:01;;;;;;;;;;;16.50;99.90;;;;;;20752009;23;20310;-75
2023/06/23 05:17:02;;;;;;;;;;;16.60;99.90;;;;;;20742738;28;20249;-76
2023/06/23 05:27:07;;;;;;;;;;;16.70;99.90;;;;;;20726802;28;19914;-76
2023/06/23 05:37:08;;;;;;;;;;;16.80;99.90;;;;;;20716512;28;19954;-76
2023/06/23 05:47:11;;;;;;;;;;;16.90;99.90;;;;;;20724633;28;19913;-77
2023/06/23 05:57:44;;;;;;;;;;;17.00;99.90;;;;;;20765241;28;20001;-76
2023/06/23 06:07:45;;;;;;;;;;;16.90;99.90;;;;;;20710441;28;20023;-77
2023/06/23 06:17:47;;;;;;;;;;;16.80;99.90;;;;;;20746740;28;19992;-78
2023/06/23 06:27:49;;;;;;;;;;;16.80;99.90;;;;;;20761697;28;20323;-76
2023/06/23 06:37:50;;;;;;;;;;;16.90;99.90;;;;;;20767417;28;19993;-77
2023/06/23 06:47:52;;;;;;;;;;;17.10;99.90;;;;;;20763030;28;19923;-77
2023/06/23 06:57:53;;;;;;;;;;;17.50;99.90;;;;;;20770858;28;19933;-76
2023/06/23 07:07:54;;;;;;;;;;;17.80;99.90;;;;;;20752148;28;19925;-75
2023/06/23 07:17:54;;;;;;;;;;;18.00;99.90;;;;;;20731637;28;19972;-75
2023/06/23 07:27:55;;;;;;;;;;;18.40;99.90;;;;;;20730346;28;19914;-75
2023/06/23 07:37:56;;;;;;;;;;;18.60;99.90;;;;;;20747577;28;19917;-76
2023/06/23 07:47:56;;;;;;;;;;;19.50;99.90;;;;;;20755395;28;20017;-76
2023/06/23 07:57:57;;;;;;;;;;;19.60;99.90;;;;;;20745157;28;20435;-76
2023/06/23 08:07:58;;;;;;;;;;;19.10;99.90;;;;;;20744116;28;19918;-76
2023/06/23 08:17:58;;;;;;;;;;;18.90;99.90;;;;;;20742864;28;19917;-76
2023/06/23 08:27:59;;;;;;;;;;;19.20;99.90;;;;;;20744241;28;19918;-76
2023/06/23 08:38:00;;;;;;;;;;;19.80;99.90;;;;;;20742999;28;20202;-76
2023/06/23 08:48:01;;;;;;;;;;;19.40;99.90;;;;;;20743282;28;19925;-75
2023/06/23 08:58:02;;;;;;;;;;;19.40;99.90;;;;;;20743172;28;19927;-76
2023/06/23 09:08:02;;;;;;;;;;;21.20;99.90;;;;;;20741747;28;19940;-76
2023/06/23 09:18:03;;;;;;;;;;;21.00;99.90;;;;;;20747647;28;20008;-76
2023/06/23 09:28:04;;;;;;;;;;;21.20;99.90;;;;;;20722511;28;19936;-76
2023/06/23 09:38:05;;;;;;;;;;;22.20;99.90;;;;;;20746841;28;19963;-76
2023/06/23 09:48:16;;;;;;;;;;;22.80;99.90;;;;;;20722930;28;19956;-76
2023/06/23 09:58:17;;;;;;;;;;;23.60;99.90;;;;;;20739107;28;19972;-75
2023/06/23 10:08:18;;;;;;;;;;;24.20;99.90;;;;;;20738441;28;19917;-75
2023/06/23 10:18:19;;;;;;;;;;;24.60;99.90;;;;;;20738057;28;19929;-75
2023/06/23 10:28:22;;;;;;;;;;;24.00;99.90;;;;;;20742995;28;20107;-75
2023/06/23 10:38:26;;;;;;;;;;;24.10;99.90;;;;;;20740152;28;20001;-75
2023/06/23 10:48:27;;;;;;;;;;;24.40;99.90;;;;;;20750071;28;19914;-76
2023/06/23 10:58:28;;;;;;;;;;;24.50;99.90;;;;;;20750302;28;20007;-76
2023/06/23 11:08:32;;;;;;;;;;;24.50;99.90;;;;;;20791642;23;20417;-77
2023/06/23 11:18:33;;;;;;;;;;;25.00;99.90;;;;;;20831040;28;19921;-77
2023/06/23 11:28:40;;;;;;;;;;;24.10;99.90;;;;;;20830456;28;19920;-77
2023/06/23 11:38:42;;;;;;;;;;;24.00;99.90;;;;;;20829379;28;19925;-77
2023/06/23 11:48:43;;;;;;;;;;;24.70;99.90;;;;;;20828004;28;19917;-77
2023/06/23 11:58:48;;;;;;;;;;;24.60;99.90;;;;;;20828692;28;19917;-77
2023/06/23 12:08:49;;;;;;;;;;;24.90;99.90;;;;;;20838874;28;20004;-78
2023/06/23 12:18:51;;;;;;;;;;;25.40;99.90;;;;;;20841092;28;20550;-79
2023/06/23 12:28:51;;;;;;;;;;;25.50;99.90;;;;;;20833613;28;20004;-79
2023/06/23 12:38:56;;;;;;;;;;;24.80;99.90;;;;;;20838618;28;20008;-79
2023/06/23 12:48:57;;;;;;;;;;;25.00;99.90;;;;;;20840685;28;20006;-79
2023/06/23 12:58:58;;;;;;;;;;;25.50;99.90;;;;;;20840769;28;20394;-78
2023/06/23 13:08:59;;;;;;;;;;;25.00;99.90;;;;;;20840326;28;20020;-78
2023/06/23 13:19:00;;;;;;;;;;;25.30;99.90;;;;;;20825080;28;19924;-78
2023/06/23 13:29:01;;;;;;;;;;;25.50;99.90;;;;;;20834140;28;20272;-79
2023/06/23 13:39:02;;;;;;;;;;;26.10;99.90;;;;;;20835191;28;19921;-79
2023/06/23 13:49:03;;;;;;;;;;;25.60;99.90;;;;;;20830969;28;19914;-79
2023/06/23 13:59:04;;;;;;;;;;;26.60;99.90;;;;;;20836238;28;19968;-78
2023/06/23 14:09:05;;;;;;;;;;;26.30;99.90;;;;;;20810353;28;20371;-78
2023/06/23 14:19:05;;;;;;;;;;;26.30;99.90;;;;;;20817923;28;19921;-79
2023/06/23 14:29:07;;;;;;;;;;;26.80;99.40;;;;;;20854252;28;19928;-79
2023/06/23 14:39:07;;;;;;;;;;;26.50;99.30;;;;;;20852219;28;19932;-78
2023/06/23 14:49:08;;;;;;;;;;;26.80;99.90;;;;;;20851201;28;19914;-79
2023/06/23 14:59:08;;;;;;;;;;;26.90;95.30;;;;;;20851942;28;19965;-78
2023/06/23 15:09:10;;;;;;;;;;;26.60;99.20;;;;;;20813596;28;20012;-78
2023/06/23 15:19:10;;;;;;;;;;;26.30;97.50;;;;;;20818152;28;19924;-78
2023/06/23 15:29:11;;;;;;;;;;;26.60;96.60;;;;;;20831995;28;19913;-77
2023/06/23 15:39:12;;;;;;;;;;;26.20;95.30;;;;;;20830737;28;19917;-76
2023/06/23 15:49:12;;;;;;;;;;;25.10;96.00;;;;;;20841696;28;19914;-79
2023/06/23 15:59:13;;;;;;;;;;;25.60;94.80;;;;;;20792137;28;19943;-78
2023/06/23 16:09:14;;;;;;;;;;;26.10;95.10;;;;;;20791685;28;20399;-78
2023/06/23 16:19:14;;;;;;;;;;;25.30;94.50;;;;;;20780987;28;19935;-78
2023/06/23 16:29:15;;;;;;;;;;;25.30;94.90;;;;;;20838485;28;19933;-78
2023/06/23 16:39:16;;;;;;;;;;;25.60;94.00;;;;;;20830574;28;20406;-77
2023/06/23 16:49:17;;;;;;;;;;;25.50;93.80;;;;;;20825094;28;19920;-77
2023/06/23 16:59:18;;;;;;;;;;;25.10;92.10;;;;;;20821773;28;19918;-79
2023/06/23 17:09:19;;;;;;;;;;;25.30;93.30;;;;;;20854058;23;19929;-76
2023/06/23 17:19:20;;;;;;;;;;;24.50;92.20;;;;;;20822759;28;19944;-77
2023/06/23 17:29:20;;;;;;;;;;;24.60;92.80;;;;;;20832336;28;20002;-77
2023/06/23 17:39:21;;;;;;;;;;;24.70;93.40;;;;;;20823667;28;20413;-77
2023/06/23 17:49:22;;;;;;;;;;;24.60;93.40;;;;;;20829371;28;19917;-77
2023/06/23 17:59:23;;;;;;;;;;;24.10;93.80;;;;;;20793532;28;20391;-76
2023/06/23 18:09:23;;;;;;;;;;;24.80;93.70;;;;;;20813212;28;19928;-78
2023/06/23 18:19:24;;;;;;;;;;;24.70;93.80;;;;;;20833503;28;19956;-78
2023/06/23 18:29:25;;;;;;;;;;;25.70;93.60;;;;;;20838579;28;19947;-78
2023/06/23 18:39:25;;;;;;;;;;;26.20;94.70;;;;;;20823624;28;19917;-77
2023/06/23 18:49:26;;;;;;;;;;;26.80;98.80;;;;;;20822066;28;19925;-77
2023/06/23 18:59:27;;;;;;;;;;;22.90;99.90;;;;;;20840897;28;19921;-77
2023/06/23 19:09:27;;;;;;;;;;;21.80;99.90;;;;;;20821114;28;19917;-76
2023/06/23 19:19:28;;;;;;;;;;;20.80;99.90;;;;;;20801619;28;20450;-79
2023/06/23 19:29:29;;;;;;;;;;;20.60;99.90;;;;;;20808410;28;19949;-79
2023/06/23 19:39:29;;;;;;;;;;;20.50;99.90;;;;;;20809955;28;19949;-79
2023/06/23 19:49:30;;;;;;;;;;;20.60;99.90;;;;;;20814098;28;20346;-78
2023/06/23 19:59:31;;;;;;;;;;;20.00;99.90;;;;;;20824492;28;19920;-78
2023/06/23 20:09:32;;;;;;;;;;;19.30;99.90;;;;;;20801130;28;19928;-75
2023/06/23 20:19:32;;;;;;;;;;;18.70;99.90;;;;;;20841222;28;19923;-75
2023/06/23 20:29:33;;;;;;;;;;;17.50;99.90;;;;;;20837161;28;19921;-75
2023/06/23 20:39:34;;;;;;;;;;;17.10;99.90;;;;;;20877567;28;20227;-78
2023/06/23 20:49:35;;;;;;;;;;;17.60;99.90;;;;;;20889576;28;19920;-76
2023/06/23 20:59:36;;;;;;;;;;;17.80;99.90;;;;;;20856105;28;19921;-77
2023/06/23 21:09:36;;;;;;;;;;;17.00;99.90;;;;;;20810981;28;19960;-78
2023/06/23 21:19:37;;;;;;;;;;;16.50;99.90;;;;;;20808671;28;19917;-76
2023/06/23 21:29:38;;;;;;;;;;;16.90;99.90;;;;;;20827423;28;19913;-78
2023/06/23 21:39:39;;;;;;;;;;;16.60;99.90;;;;;;20834694;28;19940;-78
2023/06/23 21:49:40;;;;;;;;;;;16.60;99.90;;;;;;20825157;28;20283;-77
2023/06/23 21:59:40;;;;;;;;;;;16.60;99.90;;;;;;20840755;28;19921;-76
2023/06/23 22:09:41;;;;;;;;;;;16.50;99.90;;;;;;20817205;28;20462;-76
2023/06/23 22:19:42;;;;;;;;;;;16.10;99.90;;;;;;20796592;28;19956;-76
2023/06/23 22:29:42;;;;;;;;;;;16.40;99.90;;;;;;20827189;28;19924;-76
2023/06/23 22:39:43;;;;;;;;;;;16.40;99.90;;;;;;20806665;28;19926;-76
2023/06/23 22:49:43;;;;;;;;;;;16.50;99.90;;;;;;20803846;28;19925;-75
2023/06/23 22:59:44;;;;;;;;;;;16.10;99.90;;;;;;20805686;28;19929;-76
2023/06/23 23:09:45;;;;;;;;;;;15.40;99.90;;;;;;20772745;22;19930;-76
2023/06/23 23:19:47;;;;;;;;;;;14.90;99.90;;;;;;20717836;28;20295;-76
2023/06/23 23:29:50;;;;;;;;;;;15.00;99.90;;;;;;20633233;28;19921;-76
2023/06/23 23:39:51;;;;;;;;;;;14.60;99.90;;;;;;20595314;28;19918;-76
2023/06/23 23:49:52;;;;;;;;;;;14.70;99.90;;;;;;20594997;28;19921;-76
2023/06/23 23:59:53;;;;;;;;;;;14.60;99.90;;;;;;20677720;28;20380;-76
